Time;durP1;ratioP1;P1;durP2;ratioP2;P2;SDS_P1;SDS_P2;PMS_P1;PMS_P2;Temp;Humidity;BMP_temperature;BMP_pressure;BME280_temperature;BME280_humidity;BME280_pressure;Samples;Min_cycle;Max_cycle;Signal;HPM_P1;HPM_P2
2021/04/18 00:02:15;;;;;;;0.50;0.50;;;;;;;6.13;50.02;102319.19;5081414;28;20219;-72
2021/04/18 00:04:44;;;;;;;0.80;0.53;;;;;;;6.51;49.64;102400.09;5080690;28;20198;-71
2021/04/18 00:07:12;;;;;;;2.63;0.87;;;;;;;6.56;49.77;102381.28;5085386;28;20217;-71
2021/04/18 00:09:39;;;;;;;0.93;0.70;;;;;;;6.54;49.99;102384.88;5080843;28;20257;-72
2021/04/18 00:12:07;;;;;;;0.47;0.40;;;;;;;6.53;49.68;102380.47;5081324;28;20202;-71
2021/04/18 00:14:35;;;;;;;2.43;0.47;;;;;;;6.49;50.00;102386.78;5077871;28;20199;-71
2021/04/18 00:17:03;;;;;;;1.43;0.90;;;;;;;6.49;50.02;102385.91;5091634;28;20615;-72
2021/04/18 00:19:34;;;;;;;2.53;0.70;;;;;;;6.40;50.15;102380.78;5079874;28;20198;-71
2021/04/18 00:22:01;;;;;;;0.40;0.40;;;;;;;6.18;50.14;102364.41;5077712;28;20656;-71
2021/04/18 00:24:29;;;;;;;3.20;0.50;;;;;;;6.35;50.20;102390.69;5079593;28;20203;-71
2021/04/18 00:26:56;;;;;;;0.53;0.40;;;;;;;6.34;50.23;102380.94;5081728;28;20201;-71
2021/04/18 00:29:23;;;;;;;1.57;0.63;;;;;;;6.31;50.31;102381.88;5085093;28;20199;-71
2021/04/18 00:31:50;;;;;;;1.03;0.60;;;;;;;6.30;50.64;102398.81;5082518;28;20668;-72
2021/04/18 00:34:19;;;;;;;0.43;0.43;;;;;;;6.28;49.94;102397.09;5080665;28;20254;-72
2021/04/18 00:36:46;;;;;;;0.70;0.70;;;;;;;6.22;50.13;102393.66;5075029;28;20216;-72
2021/04/18 00:39:13;;;;;;;1.20;0.50;;;;;;;6.22;50.35;102387.44;5088004;28;20689;-72
2021/04/18 00:41:41;;;;;;;1.70;0.60;;;;;;;6.18;50.72;102393.75;5076234;28;20253;-72
2021/04/18 00:44:11;;;;;;;0.30;0.30;;;;;;;6.19;50.26;102385.72;5086405;28;20197;-72
2021/04/18 00:46:38;;;;;;;7.40;4.93;;;;;;;6.15;50.24;102380.50;5081700;28;20191;-72
2021/04/18 00:49:06;;;;;;;4.10;1.90;;;;;;;6.15;50.33;102394.72;5083635;28;20229;-72
2021/04/18 00:51:35;;;;;;;1.53;0.90;;;;;;;6.14;50.92;102392.06;5076708;28;20293;-72
2021/04/18 00:54:02;;;;;;;0.90;0.90;;;;;;;6.11;51.17;102373.44;5079135;28;20568;-72
2021/04/18 00:56:30;;;;;;;3.93;0.60;;;;;;;6.15;51.31;102380.50;5078391;28;20688;-72
2021/04/18 00:58:57;;;;;;;3.27;0.63;;;;;;;5.87;51.55;102349.09;5075535;28;20668;-72
2021/04/18 01:01:25;;;;;;;0.60;0.57;;;;;;;6.07;51.22;102374.44;5105972;27;20687;-72
2021/04/18 01:03:53;;;;;;;1.30;0.60;;;;;;;6.07;52.66;102377.09;5082833;28;20714;-72
2021/04/18 01:06:20;;;;;;;0.40;0.40;;;;;;;6.07;51.96;102377.09;5079411;28;20252;-72
2021/04/18 01:08:49;;;;;;;2.83;0.60;;;;;;;6.05;51.80;102381.59;5084171;28;20218;-72
2021/04/18 01:11:17;;;;;;;1.07;0.57;;;;;;;6.01;51.85;102375.47;5073827;28;20198;-72
2021/04/18 01:13:45;;;;;;;0.70;0.70;;;;;;;6.03;52.00;102372.75;5074346;28;20205;-72
2021/04/18 01:16:12;;;;;;;2.60;0.60;;;;;;;6.01;52.04;102371.91;5081388;28;20296;-72
2021/04/18 01:18:40;;;;;;;0.40;0.40;;;;;;;6.01;51.71;102377.25;5080797;28;20299;-72
2021/04/18 01:21:09;;;;;;;1.53;1.43;;;;;;;6.00;51.58;102373.72;5084234;28;20199;-71
2021/04/18 01:23:42;;;;;;;0.33;0.33;;;;;;;5.95;52.17;102375.59;5080925;28;20228;-71
2021/04/18 01:26:28;;;;;;;0.57;0.57;;;;;;;5.91;52.13;102374.81;5070509;28;20657;-71
2021/04/18 01:28:57;;;;;;;1.00;0.43;;;;;;;5.94;51.83;102378.31;5072464;28;20297;-72
2021/04/18 01:31:24;;;;;;;0.67;0.67;;;;;;;5.84;52.04;102381.16;5078464;28;20625;-71
2021/04/18 01:33:52;;;;;;;0.37;0.37;;;;;;;5.60;52.38;102341.69;5073682;28;20203;-72
2021/04/18 01:36:22;;;;;;;0.70;0.70;;;;;;;5.45;52.24;102321.56;5085568;28;20215;-72
2021/04/18 01:38:49;;;;;;;0.47;0.47;;;;;;;5.57;53.04;102355.09;5072813;28;20240;-73
2021/04/18 01:41:16;;;;;;;1.80;0.70;;;;;;;5.58;52.59;102356.84;5075866;28;20604;-72
2021/04/18 01:43:44;;;;;;;2.47;0.73;;;;;;;5.70;52.82;102372.56;5072063;28;20201;-73
2021/04/18 01:46:13;;;;;;;0.67;0.67;;;;;;;5.66;53.18;102380.66;5090686;28;20220;-72
2021/04/18 01:48:50;;;;;;;1.47;0.80;;;;;;;5.67;53.61;102382.41;5070241;28;20220;-72
2021/04/18 01:51:17;;;;;;;3.13;0.60;;;;;;;5.63;53.46;102386.03;5072323;28;20199;-72
2021/04/18 01:53:46;;;;;;;0.57;0.57;;;;;;;5.61;53.76;102380.75;5076357;28;20201;-73
2021/04/18 01:56:14;;;;;;;1.70;0.50;;;;;;;5.55;53.87;102384.44;5089105;28;20210;-72
2021/04/18 01:58:43;;;;;;;0.80;0.70;;;;;;;5.55;54.08;102378.22;5076254;28;20247;-73
2021/04/18 02:01:27;;;;;;;2.23;0.60;;;;;;;5.52;54.23;102388.94;5079581;28;20202;-72
2021/04/18 02:03:57;;;;;;;0.97;0.60;;;;;;;5.50;54.48;102386.28;5085761;28;20209;-73
2021/04/18 02:06:25;;;;;;;1.00;0.67;;;;;;;5.45;53.96;102376.63;5084170;28;20668;-73
2021/04/18 02:09:03;;;;;;;0.60;0.60;;;;;;;5.45;54.47;102381.97;5076879;28;20207;-73
2021/04/18 02:11:36;;;;;;;0.50;0.50;;;;;;;4.96;54.18;102297.72;5080811;28;20205;-73
2021/04/18 02:14:07;;;;;;;1.30;0.40;;;;;;;5.38;54.17;102375.88;5083945;28;20490;-72
2021/04/18 02:16:44;;;;;;;0.57;0.40;;;;;;;5.29;55.34;102392.94;5085312;28;20273;-72
2021/04/18 02:19:15;;;;;;;0.40;0.40;;;;;;;5.27;55.03;102389.41;5080292;28;20266;-72
2021/04/18 02:21:43;;;;;;;0.83;0.70;;;;;;;5.36;54.48;102379.47;5082568;28;20209;-71
2021/04/18 02:24:15;;;;;;;0.83;0.60;;;;;;;5.32;54.92;102391.09;5078159;28;20207;-72
2021/04/18 02:26:42;;;;;;;0.80;0.60;;;;;;;5.28;55.33;102388.50;5081442;28;20193;-72
2021/04/18 02:29:14;;;;;;;1.93;0.90;;;;;;;5.24;55.39;102386.81;5086402;28;20194;-72
2021/04/18 02:31:52;;;;;;;0.47;0.47;;;;;;;5.23;55.26;102387.72;5084202;28;20565;-72
2021/04/18 02:34:20;;;;;;;7.23;6.27;;;;;;;5.13;56.14;102386.13;5079531;28;20202;-72
2021/04/18 02:36:47;;;;;;;3.83;2.80;;;;;;;5.16;56.20;102388.72;5078720;28;20220;-72
2021/04/18 02:39:15;;;;;;;0.70;0.70;;;;;;;4.92;56.48;102343.94;5085771;28;20197;-72
2021/04/18 02:41:43;;;;;;;0.60;0.60;;;;;;;5.12;56.81;102389.69;5079585;28;20585;-72
2021/04/18 02:44:12;;;;;;;0.67;0.67;;;;;;;5.17;55.99;102393.16;5077646;28;20205;-72
2021/04/18 02:46:41;;;;;;;0.97;0.60;;;;;;;5.10;56.54;102390.63;5107822;27;20204;-72
2021/04/18 02:49:09;;;;;;;0.40;0.40;;;;;;;4.90;56.54;102361.72;5073379;28;20217;-72
2021/04/18 02:51:39;;;;;;;0.80;0.80;;;;;;;5.08;57.08;102388.00;5076241;28;20216;-72
2021/04/18 02:54:07;;;;;;;0.77;0.77;;;;;;;5.01;56.83;102391.69;5089837;28;20197;-72
2021/04/18 02:56:39;;;;;;;0.87;0.60;;;;;;;4.94;57.91;102395.38;5080325;28;20201;-72
2021/04/18 02:59:09;;;;;;;0.60;0.60;;;;;;;4.91;57.72;102383.00;5082172;28;20633;-72
2021/04/18 03:01:37;;;;;;;0.73;0.73;;;;;;;4.87;58.19;102373.28;5076976;28;20203;-71
2021/04/18 03:04:07;;;;;;;0.90;0.90;;;;;;;4.87;57.52;102388.38;5076240;28;20202;-71
2021/04/18 03:06:35;;;;;;;1.23;1.00;;;;;;;4.84;57.88;102380.44;5078758;28;20201;-72
2021/04/18 03:09:03;;;;;;;1.23;0.67;;;;;;;4.77;58.11;102384.13;5083684;28;20730;-71
2021/04/18 03:11:31;;;;;;;1.47;0.97;;;;;;;4.73;57.88;102380.66;5086958;28;20194;-71
2021/04/18 03:14:07;;;;;;;1.67;0.70;;;;;;;4.71;58.17;102384.25;5079405;28;20192;-71
2021/04/18 03:16:35;;;;;;;1.37;1.00;;;;;;;4.64;58.59;102371.03;5078039;28;20205;-72
2021/04/18 03:19:02;;;;;;;0.67;0.67;;;;;;;4.56;59.09;102370.28;5072023;28;20288;-72
2021/04/18 03:21:31;;;;;;;0.60;0.50;;;;;;;4.62;58.96;102393.25;5076426;28;20717;-72
2021/04/18 03:23:59;;;;;;;0.77;0.77;;;;;;;4.68;58.25;102386.03;5081173;28;20598;-72
2021/04/18 03:26:27;;;;;;;1.00;0.80;;;;;;;4.62;58.86;102383.50;5073356;28;20242;-71
2021/04/18 03:28:58;;;;;;;1.13;0.80;;;;;;;4.65;58.06;102372.81;5075316;28;20205;-71
2021/04/18 03:31:27;;;;;;;4.13;0.60;;;;;;;4.60;58.77;102376.44;5088082;28;20663;-71
2021/04/18 03:34:03;;;;;;;0.83;0.70;;;;;;;4.60;58.91;102377.31;5083008;28;20522;-72
2021/04/18 03:36:32;;;;;;;1.13;0.70;;;;;;;4.58;58.16;102381.75;5070376;28;20197;-71
2021/04/18 03:39:15;;;;;;;3.37;0.80;;;;;;;4.52;58.76;102379.22;5071963;28;20197;-71
2021/04/18 03:41:45;;;;;;;1.43;1.10;;;;;;;4.50;59.45;102381.03;5086050;28;20577;-71
2021/04/18 03:44:13;;;;;;;1.00;0.90;;;;;;;4.43;58.90;102375.84;5080263;28;20223;-71
2021/04/18 03:46:41;;;;;;;1.33;0.80;;;;;;;4.54;59.08;102385.38;5082320;28;20200;-72
2021/04/18 03:49:12;;;;;;;1.37;0.70;;;;;;;4.51;59.16;102374.78;5078532;28;20229;-71
2021/04/18 03:51:55;;;;;;;0.60;0.60;;;;;;;4.50;59.28;102383.69;5083497;28;20303;-72
2021/04/18 03:54:22;;;;;;;1.40;0.70;;;;;;;4.53;58.61;102372.09;5077852;28;20193;-72
2021/04/18 03:56:51;;;;;;;1.47;0.77;;;;;;;4.49;59.51;102376.59;5083692;28;20197;-71
2021/04/18 03:59:21;;;;;;;3.53;0.57;;;;;;;4.37;60.06;102371.50;5085713;28;20562;-71
2021/04/18 04:01:52;;;;;;;1.27;0.50;;;;;;;4.42;60.01;102385.59;5079657;28;20580;-71
2021/04/18 04:04:21;;;;;;;0.70;0.60;;;;;;;4.50;59.88;102385.47;5085259;28;20205;-71
2021/04/18 04:06:50;;;;;;;0.73;0.70;;;;;;;4.50;60.07;102378.34;5089173;28;20200;-71
2021/04/18 04:09:19;;;;;;;1.33;0.90;;;;;;;4.15;60.71;102327.53;5078157;28;20758;-71
2021/04/18 04:11:52;;;;;;;1.27;0.60;;;;;;;4.60;59.96;102379.09;5080882;28;20249;-71
2021/04/18 04:14:25;;;;;;;1.97;0.73;;;;;;;4.18;60.54;102333.66;5075751;28;20730;-71
2021/04/18 04:16:57;;;;;;;2.50;1.00;;;;;;;4.50;60.62;102383.69;5086344;28;20197;-72
2021/04/18 04:19:29;;;;;;;1.83;0.90;;;;;;;4.65;60.30;102401.19;5086338;28;20324;-71
2021/04/18 04:22:15;;;;;;;65.60;43.90;;;;;;;4.73;60.43;102390.41;5074434;28;20271;-71
2021/04/18 04:24:48;;;;;;;22.17;14.20;;;;;;;4.72;60.93;102386.00;5070869;28;20200;-71
2021/04/18 04:27:16;;;;;;;1.87;0.70;;;;;;;4.57;61.48;102388.00;5077401;28;20289;-70
2021/04/18 04:29:43;;;;;;;4.33;0.93;;;;;;;4.72;61.35;102394.84;5076815;28;20198;-72
2021/04/18 04:32:11;;;;;;;0.50;0.50;;;;;;;4.77;61.79;102397.44;5082678;28;20205;-70
2021/04/18 04:34:38;;;;;;;8.70;5.60;;;;;;;4.87;61.47;102401.69;5088368;28;20196;-70
2021/04/18 04:37:06;;;;;;;1.17;0.90;;;;;;;4.92;61.79;102402.50;5086355;28;20209;-70
2021/04/18 04:39:33;;;;;;;2.20;0.70;;;;;;;4.97;61.50;102396.19;5081918;28;20269;-71
2021/04/18 04:42:01;;;;;;;2.93;1.10;;;;;;;5.09;61.35;102389.75;5083851;28;20218;-71
2021/04/18 04:44:29;;;;;;;3.50;0.80;;;;;;;5.01;61.21;102359.75;5079278;28;20674;-71
2021/04/18 04:46:57;;;;;;;2.10;0.80;;;;;;;5.25;61.32;102401.00;5077219;28;20274;-70
2021/04/18 04:49:25;;;;;;;1.00;0.90;;;;;;;5.39;60.14;102398.94;5086877;28;20664;-72
2021/04/18 04:51:53;;;;;;;2.50;0.80;;;;;;;5.48;60.20;102397.88;5080983;28;20234;-72
2021/04/18 04:54:20;;;;;;;0.60;0.60;;;;;;;5.46;60.27;102383.72;5084534;28;20211;-72
2021/04/18 04:56:47;;;;;;;1.60;0.80;;;;;;;5.59;60.00;102387.91;5074377;28;20276;-72
2021/04/18 04:59:15;;;;;;;2.27;1.00;;;;;;;5.63;59.62;102400.25;5085489;28;20562;-72
2021/04/18 05:01:42;;;;;;;0.73;0.60;;;;;;;5.72;59.91;102396.50;5078129;28;20233;-71
2021/04/18 05:04:09;;;;;;;0.80;0.80;;;;;;;5.64;60.12;102402.00;5076170;28;20197;-72
2021/04/18 05:06:37;;;;;;;3.97;0.63;;;;;;;5.79;59.90;102398.13;5074840;28;20304;-72
2021/04/18 05:09:05;;;;;;;1.37;0.80;;;;;;;5.84;59.97;102402.47;5083646;28;20250;-71
2021/04/18 05:11:32;;;;;;;0.97;0.67;;;;;;;6.03;59.68;102396.75;5086885;28;20281;-70
2021/04/18 05:14:00;;;;;;;0.87;0.63;;;;;;;6.24;58.94;102412.28;5070468;28;20299;-71
2021/04/18 05:16:27;;;;;;;1.50;0.93;;;;;;;6.14;58.36;102381.41;5081825;28;20637;-72
2021/04/18 05:18:54;;;;;;;1.90;0.63;;;;;;;6.42;58.44;102401.16;5080018;28;20237;-71
2021/04/18 05:21:24;;;;;;;0.70;0.70;;;;;;;6.53;58.48;102404.47;5078060;28;20222;-71
2021/04/18 05:23:52;;;;;;;0.40;0.40;;;;;;;6.73;58.13;102405.75;5081409;28;20226;-71
2021/04/18 05:26:19;;;;;;;1.13;0.60;;;;;;;6.81;57.49;102401.13;5068262;28;20709;-71
2021/04/18 05:28:47;;;;;;;3.03;0.83;;;;;;;7.00;57.46;102401.50;5075184;28;20194;-71
2021/04/18 05:31:14;;;;;;;0.90;0.80;;;;;;;7.06;56.93;102406.72;5080522;28;20249;-71
2021/04/18 05:33:42;;;;;;;4.70;1.00;;;;;;;7.24;56.39;102397.31;5074279;28;20299;-71
2021/04/18 05:36:11;;;;;;;1.43;0.70;;;;;;;7.35;56.10;102404.13;5071200;28;20704;-71
2021/04/18 05:38:38;;;;;;;1.00;0.80;;;;;;;7.47;55.83;102400.25;5070701;28;20702;-71
2021/04/18 05:41:06;;;;;;;0.73;0.50;;;;;;;7.38;56.22;102401.38;5074609;28;20528;-71
2021/04/18 05:43:34;;;;;;;0.67;0.67;;;;;;;7.54;55.11;102409.81;5076988;28;20287;-70
2021/04/18 05:46:02;;;;;;;1.10;0.80;;;;;;;7.75;55.03;102409.22;5082832;28;20199;-71
2021/04/18 05:48:30;;;;;;;2.83;0.60;;;;;;;7.87;54.81;102421.34;5078331;28;20658;-71
2021/04/18 05:51:00;;;;;;;2.00;1.00;;;;;;;7.85;54.51;102369.69;5075567;28;20214;-71
2021/04/18 05:53:27;;;;;;;0.70;0.70;;;;;;;8.27;54.38;102412.13;5071744;28;20228;-72
2021/04/18 05:55:54;;;;;;;3.17;0.77;;;;;;;7.76;53.65;102360.16;5080985;28;20545;-71
2021/04/18 05:58:23;;;;;;;1.30;1.20;;;;;;;8.11;53.18;102409.03;5080426;28;20314;-71
2021/04/18 06:00:53;;;;;;;0.93;0.80;;;;;;;8.24;52.20;102415.75;5075158;28;20207;-71
2021/04/18 06:03:20;;;;;;;0.63;0.60;;;;;;;8.48;52.80;102427.53;5081577;28;20238;-71
2021/04/18 06:05:48;;;;;;;0.80;0.80;;;;;;;8.29;52.52;102354.06;5072218;28;20249;-71
2021/04/18 06:08:15;;;;;;;1.50;0.87;;;;;;;8.85;52.59;102416.47;5077424;28;20253;-71
2021/04/18 06:10:43;;;;;;;1.17;0.60;;;;;;;8.93;51.67;102419.81;5072774;28;20255;-73
2021/04/18 06:13:10;;;;;;;3.00;0.80;;;;;;;8.89;51.37;102415.47;5079202;28;20238;-70
2021/04/18 06:15:38;;;;;;;0.70;0.70;;;;;;;8.90;51.41;102413.69;5079623;28;20259;-71
2021/04/18 06:18:06;;;;;;;0.70;0.70;;;;;;;9.11;51.05;102412.91;5072229;28;20218;-71
2021/04/18 06:20:33;;;;;;;0.70;0.70;;;;;;;9.24;51.16;102421.44;5074674;28;20569;-71
2021/04/18 06:23:00;;;;;;;0.60;0.60;;;;;;;9.48;50.06;102414.28;5074472;28;20197;-71
2021/04/18 06:25:28;;;;;;;0.80;0.60;;;;;;;9.66;50.06;102413.63;5076302;28;20223;-71
2021/04/18 06:27:55;;;;;;;0.60;0.60;;;;;;;9.71;49.70;102405.41;5076949;28;20703;-71
2021/04/18 06:30:25;;;;;;;1.17;1.00;;;;;;;9.90;48.74;102409.16;5080359;28;20223;-72
2021/04/18 06:32:56;;;;;;;1.43;0.80;;;;;;;9.86;48.28;102399.47;5071267;28;20666;-73
2021/04/18 06:35:23;;;;;;;0.93;0.80;;;;;;;10.09;47.90;102407.50;5076709;28;20253;-72
2021/04/18 06:37:51;;;;;;;1.53;1.00;;;;;;;10.09;47.90;102386.00;5066909;28;20219;-73
2021/04/18 06:40:18;;;;;;;10.20;0.80;;;;;;;10.46;48.49;102396.22;5073251;28;20191;-73
2021/04/18 06:42:46;;;;;;;1.73;0.70;;;;;;;10.56;46.71;102418.19;5069445;28;20189;-74
2021/04/18 06:45:13;;;;;;;1.33;0.70;;;;;;;10.56;46.12;102410.16;5077308;28;20204;-73
2021/04/18 06:47:45;;;;;;;1.27;0.90;;;;;;;10.73;45.90;102415.72;5082411;28;20195;-73
2021/04/18 06:50:14;;;;;;;1.13;1.00;;;;;;;10.87;45.59;102405.25;5110284;27;20643;-72
2021/04/18 06:52:42;;;;;;;0.63;0.63;;;;;;;11.09;45.50;102410.59;5073986;28;20682;-73
2021/04/18 06:55:11;;;;;;;1.00;0.87;;;;;;;11.28;44.32;102402.56;5079004;28;20254;-73
2021/04/18 06:57:38;;;;;;;2.07;1.00;;;;;;;11.54;44.53;102400.53;5082737;28;20215;-73
2021/04/18 07:00:08;;;;;;;2.03;0.90;;;;;;;11.52;44.01;102401.50;5073598;28;20277;-74
2021/04/18 07:02:36;;;;;;;2.27;1.00;;;;;;;11.48;42.93;102401.69;5078330;28;20241;-72
2021/04/18 07:05:06;;;;;;;5.57;0.67;;;;;;;11.54;42.91;102400.53;5079842;28;20193;-73
2021/04/18 07:07:36;;;;;;;3.60;1.00;;;;;;;11.66;42.24;102397.31;5083619;28;20204;-74
2021/04/18 07:10:04;;;;;;;1.43;1.00;;;;;;;11.62;41.30;102401.94;5083971;28;20332;-72
2021/04/18 07:12:34;;;;;;;0.60;0.60;;;;;;;11.68;41.96;102399.00;5088004;28;20194;-72
2021/04/18 07:15:03;;;;;;;2.07;0.70;;;;;;;11.83;42.27;102405.50;5077134;28;20413;-72
2021/04/18 07:17:30;;;;;;;3.07;0.60;;;;;;;12.18;42.36;102408.34;5083085;28;20739;-72
2021/04/18 07:23:29;;;;;;;1.80;0.80;;;;;;;12.31;40.57;102402.34;5092727;28;20205;-73
2021/04/18 07:25:57;;;;;;;0.73;0.70;;;;;;;12.51;41.56;102401.34;5075943;28;20200;-74
2021/04/18 07:28:28;;;;;;;0.70;0.70;;;;;;;12.71;40.79;102409.31;5082698;28;20190;-73
2021/04/18 07:31:00;;;;;;;0.73;0.63;;;;;;;12.65;40.66;102401.53;5079611;28;20291;-75
2021/04/18 07:33:27;;;;;;;0.83;0.83;;;;;;;13.01;41.19;102400.63;5089430;28;20647;-73
2021/04/18 07:35:55;;;;;;;2.70;1.00;;;;;;;13.16;40.88;102402.53;5074316;28;20212;-74
2021/04/18 07:38:24;;;;;;;0.87;0.87;;;;;;;13.22;40.05;102396.00;5084158;28;20316;-74
2021/04/18 07:40:54;;;;;;;0.80;0.80;;;;;;;13.18;39.40;102395.28;5079721;28;20232;-75
2021/04/18 07:43:21;;;;;;;1.90;0.70;;;;;;;13.27;40.13;102394.78;5079010;28;20195;-74
2021/04/18 07:45:51;;;;;;;0.60;0.60;;;;;;;13.35;38.08;102394.38;5078481;28;20204;-74
2021/04/18 07:48:20;;;;;;;1.47;0.63;;;;;;;13.09;38.91;102360.63;5078663;28;20200;-74
2021/04/18 07:50:49;;;;;;;1.20;0.80;;;;;;;13.12;38.20;102395.53;5081392;28;20831;-74
2021/04/18 07:53:17;;;;;;;1.33;0.70;;;;;;;13.35;38.76;102391.69;5080742;28;20274;-73
2021/04/18 07:55:45;;;;;;;1.70;1.00;;;;;;;13.06;38.49;102361.69;5079755;28;20625;-73
2021/04/18 07:58:13;;;;;;;0.93;0.77;;;;;;;13.47;38.45;102391.06;5072627;28;20315;-74
2021/04/18 08:00:40;;;;;;;0.70;0.70;;;;;;;13.22;37.78;102340.22;5086451;28;20327;-74
2021/04/18 08:03:08;;;;;;;2.37;0.80;;;;;;;13.52;38.75;102391.69;5073832;28;20614;-73
2021/04/18 08:05:36;;;;;;;0.90;0.60;;;;;;;13.52;37.46;102390.81;5082808;28;20202;-73
2021/04/18 08:08:07;;;;;;;1.33;0.67;;;;;;;13.52;38.98;102370.06;5090507;28;20203;-72
2021/04/18 08:10:35;;;;;;;0.77;0.77;;;;;;;13.76;38.35;102385.88;5084740;28;20578;-73
2021/04/18 08:13:09;;;;;;;2.63;1.10;;;;;;;13.42;37.98;102349.91;5087505;28;20277;-73
2021/04/18 08:15:39;;;;;;;0.90;0.90;;;;;;;13.90;38.63;102383.31;5071741;28;20194;-73
2021/04/18 08:18:09;;;;;;;1.53;0.70;;;;;;;14.05;37.64;102366.22;5071027;28;20678;-74
2021/04/18 08:20:39;;;;;;;2.40;0.97;;;;;;;14.23;37.24;102385.94;5084811;28;20502;-72
2021/04/18 08:23:09;;;;;;;0.80;0.80;;;;;;;14.37;36.66;102374.34;5084855;28;20187;-73
2021/04/18 08:25:38;;;;;;;1.50;0.90;;;;;;;14.28;36.65;102367.63;5075761;28;20235;-73
2021/04/18 08:28:08;;;;;;;2.40;0.77;;;;;;;14.32;36.92;102368.31;5078846;28;20203;-73
2021/04/18 08:31:02;;;;;;;3.07;1.00;;;;;;;14.30;36.66;102371.13;5083037;28;20196;-72
2021/04/18 08:33:47;;;;;;;0.77;0.77;;;;;;;14.19;36.30;102370.88;5081264;28;20226;-72
2021/04/18 08:36:16;;;;;;;0.97;0.67;;;;;;;14.37;38.03;102348.19;5082674;28;20222;-72
2021/04/18 08:38:45;;;;;;;0.53;0.53;;;;;;;14.59;36.30;102370.34;5075518;28;20263;-72
2021/04/18 08:41:17;;;;;;;1.50;0.90;;;;;;;14.63;36.80;102371.03;5075595;28;20200;-72
2021/04/18 08:43:46;;;;;;;0.90;0.90;;;;;;;14.65;35.76;102374.50;5083113;28;20600;-73
2021/04/18 08:46:21;;;;;;;1.20;0.83;;;;;;;14.76;36.08;102366.66;5079425;28;20702;-72
2021/04/18 08:48:48;;;;;;;1.53;0.90;;;;;;;14.62;35.79;102372.00;5086434;28;20189;-72
2021/04/18 08:51:31;;;;;;;0.80;0.60;;;;;;;14.71;35.69;102373.31;5077973;28;20219;-73
2021/04/18 08:54:01;;;;;;;0.93;0.93;;;;;;;14.96;35.41;102370.00;5086823;28;20196;-73
2021/04/18 08:56:44;;;;;;;4.43;0.83;;;;;;;14.88;35.42;102370.44;5088579;28;20242;-73
2021/04/18 08:59:12;;;;;;;0.83;0.80;;;;;;;14.84;34.46;102360.78;5088804;28;20236;-72
2021/04/18 09:01:53;;;;;;;2.07;1.07;;;;;;;14.96;34.44;102370.00;5083023;28;20279;-72
2021/04/18 09:04:22;;;;;;;1.60;0.83;;;;;;;14.83;33.73;102378.84;5078353;28;20201;-72
2021/04/18 09:06:49;;;;;;;1.80;0.90;;;;;;;14.75;34.09;102378.44;5082744;28;20283;-72
2021/04/18 09:09:17;;;;;;;3.40;0.70;;;;;;;14.82;35.21;102379.81;5080592;28;20609;-71
2021/04/18 09:11:47;;;;;;;2.43;0.90;;;;;;;14.99;34.68;102381.50;5077895;28;20193;-72
2021/04/18 09:14:25;;;;;;;1.93;0.90;;;;;;;14.86;33.90;102375.09;5074123;28;20568;-72
2021/04/18 09:16:54;;;;;;;2.23;0.90;;;;;;;15.05;34.35;102375.75;5090066;28;20282;-74
2021/04/18 09:19:27;;;;;;;1.07;0.90;;;;;;;15.07;34.68;102373.81;5089826;28;20234;-72
2021/04/18 09:21:56;;;;;;;1.20;0.83;;;;;;;15.08;34.55;102375.56;5075519;28;20311;-74
2021/04/18 09:24:24;;;;;;;1.03;0.70;;;;;;;14.81;34.42;102323.09;5082488;28;20689;-74
2021/04/18 09:26:59;;;;;;;1.73;0.60;;;;;;;15.11;34.10;102386.19;5072806;28;20276;-74
2021/04/18 09:29:28;;;;;;;0.87;0.80;;;;;;;15.31;35.02;102370.59;5083922;28;20275;-74
2021/04/18 09:32:06;;;;;;;3.97;0.80;;;;;;;15.10;35.61;102311.38;5080313;28;20294;-74
2021/04/18 09:34:34;;;;;;;1.43;0.80;;;;;;;15.63;33.98;102372.19;5084497;28;20204;-74
2021/04/18 09:37:06;;;;;;;1.37;0.80;;;;;;;15.79;33.54;102367.53;5072093;28;20208;-72
2021/04/18 09:39:35;;;;;;;2.33;0.90;;;;;;;15.80;34.12;102334.03;5076798;28;20624;-72
2021/04/18 09:42:05;;;;;;;1.40;0.90;;;;;;;16.15;34.50;102368.84;5087361;28;20705;-74
2021/04/18 09:44:37;;;;;;;0.77;0.73;;;;;;;15.96;33.23;102357.47;5090386;28;20203;-74
2021/04/18 09:47:08;;;;;;;4.43;1.10;;;;;;;16.01;33.15;102367.03;5070727;28;20255;-74
2021/04/18 09:49:53;;;;;;;3.40;0.80;;;;;;;16.14;32.73;102364.38;5080526;28;20593;-74
2021/04/18 09:52:30;;;;;;;0.80;0.80;;;;;;;16.14;33.13;102359.84;5084980;28;20660;-72
2021/04/18 09:55:08;;;;;;;0.83;0.80;;;;;;;15.92;34.16;102345.06;5068131;28;20197;-72
2021/04/18 09:58:02;;;;;;;3.80;1.23;;;;;;;16.09;32.85;102353.84;5087465;28;20219;-72
2021/04/18 10:00:37;;;;;;;1.10;0.90;;;;;;;16.54;34.09;102362.66;5079656;28;20208;-72
2021/04/18 10:03:08;;;;;;;1.20;1.03;;;;;;;16.55;33.97;102334.53;5089232;28;20207;-74
2021/04/18 10:05:38;;;;;;;6.87;1.37;;;;;;;16.88;32.90;102358.56;5072836;28;20441;-73
2021/04/18 10:08:25;;;;;;;1.40;0.93;;;;;;;16.72;32.83;102357.84;5083343;28;20216;-73
2021/04/18 10:10:54;;;;;;;0.80;0.80;;;;;;;16.53;31.68;102357.28;5076654;28;20237;-73
2021/04/18 10:13:39;;;;;;;1.23;0.90;;;;;;;16.75;33.25;102361.22;5110660;28;20610;-73
2021/04/18 10:16:20;;;;;;;4.17;0.80;;;;;;;16.70;31.31;102355.22;5071385;28;20193;-73
2021/04/18 10:19:10;;;;;;;1.53;0.70;;;;;;;16.56;33.15;102351.69;5067028;28;20329;-72
2021/04/18 10:21:40;;;;;;;3.70;0.80;;;;;;;16.63;32.36;102350.28;5084954;28;20746;-72
2021/04/18 10:24:33;;;;;;;0.80;0.80;;;;;;;16.59;32.75;102354.19;5077530;28;20205;-72
2021/04/18 10:27:02;;;;;;;1.83;1.10;;;;;;;16.40;32.83;102352.69;5070574;28;20204;-73
2021/04/18 10:29:30;;;;;;;1.40;0.80;;;;;;;16.68;32.43;102340.91;5077586;28;20207;-73
2021/04/18 10:31:57;;;;;;;2.27;1.00;;;;;;;16.70;32.59;102313.66;5082665;28;20357;-72
2021/04/18 10:34:26;;;;;;;2.33;0.90;;;;;;;17.11;33.04;102345.22;5080953;28;20193;-73
2021/04/18 10:36:54;;;;;;;1.93;1.00;;;;;;;17.26;32.53;102346.88;5076599;28;20600;-72
2021/04/18 10:39:22;;;;;;;2.60;1.03;;;;;;;17.21;31.02;102347.19;5078158;28;20217;-73
2021/04/18 10:41:52;;;;;;;2.20;1.00;;;;;;;17.00;32.13;102338.69;5078779;28;20563;-73
2021/04/18 10:44:20;;;;;;;3.03;1.20;;;;;;;17.22;32.62;102348.94;5077118;28;20185;-73
2021/04/18 10:46:50;;;;;;;1.30;1.00;;;;;;;17.39;31.72;102343.16;5083403;28;20281;-74
2021/04/18 10:49:18;;;;;;;2.70;1.10;;;;;;;17.32;32.12;102350.03;5077605;28;20283;-72
2021/04/18 10:51:46;;;;;;;0.90;0.90;;;;;;;17.22;32.08;102345.34;5076805;28;20199;-74
2021/04/18 10:54:15;;;;;;;1.17;1.10;;;;;;;17.28;31.33;102347.63;5086839;28;20197;-74
2021/04/18 10:56:42;;;;;;;1.83;0.80;;;;;;;17.41;32.77;102334.91;5107971;27;20193;-73
2021/04/18 10:59:10;;;;;;;0.93;0.90;;;;;;;17.24;30.98;102338.84;5074887;28;20581;-73
2021/04/18 11:01:37;;;;;;;3.07;0.90;;;;;;;17.45;33.51;102347.31;5074797;28;20298;-73
2021/04/18 11:04:05;;;;;;;2.63;0.83;;;;;;;17.58;32.21;102347.31;5078384;28;20202;-74
2021/04/18 11:06:33;;;;;;;4.83;1.00;;;;;;;17.94;33.15;102354.69;5081575;28;20680;-74
2021/04/18 11:09:01;;;;;;;0.87;0.87;;;;;;;17.69;31.37;102334.72;5078617;28;20732;-74
2021/04/18 11:11:30;;;;;;;0.80;0.80;;;;;;;17.96;31.53;102342.72;5083224;28;20511;-74
2021/04/18 11:13:57;;;;;;;1.60;1.20;;;;;;;17.88;31.01;102344.25;5083105;28;20272;-74
2021/04/18 11:16:25;;;;;;;1.93;0.90;;;;;;;17.93;31.18;102333.91;5078187;28;20695;-74
2021/04/18 11:18:53;;;;;;;0.80;0.80;;;;;;;18.24;31.95;102344.25;5073688;28;20753;-74
2021/04/18 11:21:22;;;;;;;1.27;1.10;;;;;;;17.87;31.60;102343.38;5078310;28;20628;-74
2021/04/18 11:23:49;;;;;;;1.07;1.00;;;;;;;17.65;31.29;102303.28;5072343;28;20261;-75
2021/04/18 11:26:17;;;;;;;0.60;0.60;;;;;;;18.05;31.61;102332.13;5069997;28;20301;-73
2021/04/18 11:28:47;;;;;;;3.13;1.13;;;;;;;18.11;31.15;102329.84;5070740;28;20270;-71
2021/04/18 11:31:14;;;;;;;3.57;1.20;;;;;;;17.94;30.62;102338.38;5073613;28;20208;-72
2021/04/18 11:33:42;;;;;;;4.80;0.83;;;;;;;17.85;29.53;102333.59;5071049;28;20204;-72
2021/04/18 11:36:11;;;;;;;2.33;1.00;;;;;;;17.73;30.22;102327.19;5070012;28;20714;-71
2021/04/18 11:38:38;;;;;;;1.63;0.70;;;;;;;17.48;30.95;102271.03;5068055;28;20289;-72
2021/04/18 11:41:05;;;;;;;1.27;0.80;;;;;;;17.77;30.37;102330.59;5071448;28;20197;-72
2021/04/18 11:43:34;;;;;;;3.50;1.00;;;;;;;17.62;29.62;102327.94;5070840;28;20291;-71
2021/04/18 11:46:02;;;;;;;0.60;0.60;;;;;;;17.39;30.73;102332.31;5068120;28;20205;-71